sensor_id;sensor_type;location;lat;lon;timestamp;P1;durP1;ratioP1;P2;durP2;ratioP2
22675;SDS011;12521;43.310;21.876;2022-09-09T00:04:39;11.0;;;10.0;;
22675;SDS011;12521;43.310;21.876;2022-09-09T00:09:27;11.0;;;10.0;;
22675;SDS011;12521;43.310;21.876;2022-09-09T00:14:45;11.0;;;10.0;;
22675;SDS011;12521;43.310;21.876;2022-09-09T00:19:49;11.0;;;10.0;;
22675;SDS011;12521;43.310;21.876;2022-09-09T00:24:45;11.0;;;10.0;;
22675;SDS011;12521;43.310;21.876;2022-09-09T00:29:41;11.0;;;9.0;;
22675;SDS011;12521;43.310;21.876;2022-09-09T00:34:29;11.0;;;9.0;;
22675;SDS011;12521;43.310;21.876;2022-09-09T00:39:29;12.0;;;10.0;;
22675;SDS011;12521;43.310;21.876;2022-09-09T00:44:32;12.0;;;10.0;;
22675;SDS011;12521;43.310;21.876;2022-09-09T00:49:33;12.0;;;10.0;;
22675;SDS011;12521;43.310;21.876;2022-09-09T00:54:53;12.0;;;10.0;;
22675;SDS011;12521;43.310;21.876;2022-09-09T01:00:15;12.0;;;10.0;;
22675;SDS011;12521;43.310;21.876;2022-09-09T01:05:12;12.0;;;10.0;;
22675;SDS011;12521;43.310;21.876;2022-09-09T01:10:36;13.0;;;11.0;;
22675;SDS011;12521;43.310;21.876;2022-09-09T01:15:32;13.0;;;11.0;;
22675;SDS011;12521;43.310;21.876;2022-09-09T01:20:24;12.0;;;10.0;;
22675;SDS011;12521;43.310;21.876;2022-09-09T01:26:19;12.0;;;10.0;;
22675;SDS011;12521;43.310;21.876;2022-09-09T01:31:17;11.0;;;9.0;;
22675;SDS011;12521;43.310;21.876;2022-09-09T01:36:10;11.0;;;9.0;;
22675;SDS011;12521;43.310;21.876;2022-09-09T01:41:05;10.0;;;9.0;;
22675;SDS011;12521;43.310;21.876;2022-09-09T01:45:43;10.0;;;9.0;;
22675;SDS011;12521;43.310;21.876;2022-09-09T01:50:31;10.0;;;9.0;;
22675;SDS011;12521;43.310;21.876;2022-09-09T01:55:10;10.0;;;9.0;;
22675;SDS011;12521;43.310;21.876;2022-09-09T02:00:05;11.0;;;10.0;;
22675;SDS011;12521;43.310;21.876;2022-09-09T02:05:09;11.0;;;10.0;;
22675;SDS011;12521;43.310;21.876;2022-09-09T02:10:31;12.0;;;10.0;;
22675;SDS011;12521;43.310;21.876;2022-09-09T02:15:52;12.0;;;10.0;;
22675;SDS011;12521;43.310;21.876;2022-09-09T02:20:53;10.0;;;9.0;;
22675;SDS011;12521;43.310;21.876;2022-09-09T02:25:38;10.0;;;9.0;;
22675;SDS011;12521;43.310;21.876;2022-09-09T02:30:22;9.0;;;8.0;;
22675;SDS011;12521;43.310;21.876;2022-09-09T02:35:13;9.0;;;8.0;;
22675;SDS011;12521;43.310;21.876;2022-09-09T02:40:06;10.0;;;8.0;;
22675;SDS011;12521;43.310;21.876;2022-09-09T02:44:50;10.0;;;8.0;;
22675;SDS011;12521;43.310;21.876;2022-09-09T02:49:42;12.0;;;9.0;;
22675;SDS011;12521;43.310;21.876;2022-09-09T02:54:59;12.0;;;9.0;;
22675;SDS011;12521;43.310;21.876;2022-09-09T03:00:08;12.0;;;10.0;;
22675;SDS011;12521;43.310;21.876;2022-09-09T03:04:48;12.0;;;10.0;;
22675;SDS011;12521;43.310;21.876;2022-09-09T03:09:25;12.0;;;10.0;;
22675;SDS011;12521;43.310;21.876;2022-09-09T03:14:02;12.0;;;10.0;;
22675;SDS011;12521;43.310;21.876;2022-09-09T03:18:38;12.0;;;10.0;;
22675;SDS011;12521;43.310;21.876;2022-09-09T03:23:15;12.0;;;10.0;;
22675;SDS011;12521;43.310;21.876;2022-09-09T03:27:55;12.0;;;10.0;;
22675;SDS011;12521;43.310;21.876;2022-09-09T03:32:32;11.0;;;11.0;;
22675;SDS011;12521;43.310;21.876;2022-09-09T03:37:09;11.0;;;11.0;;
22675;SDS011;12521;43.310;21.876;2022-09-09T03:41:47;11.0;;;10.0;;
22675;SDS011;12521;43.310;21.876;2022-09-09T03:46:25;11.0;;;10.0;;
22675;SDS011;12521;43.310;21.876;2022-09-09T03:51:02;11.0;;;9.0;;
22675;SDS011;12521;43.310;21.876;2022-09-09T03:55:44;11.0;;;9.0;;
22675;SDS011;12521;43.310;21.876;2022-09-09T04:00:20;10.0;;;9.0;;
22675;SDS011;12521;43.310;21.876;2022-09-09T04:04:57;10.0;;;9.0;;
22675;SDS011;12521;43.310;21.876;2022-09-09T04:09:34;10.0;;;9.0;;
22675;SDS011;12521;43.310;21.876;2022-09-09T04:14:10;10.0;;;9.0;;
22675;SDS011;12521;43.310;21.876;2022-09-09T04:18:48;10.0;;;9.0;;
22675;SDS011;12521;43.310;21.876;2022-09-09T04:23:27;11.0;;;9.0;;
22675;SDS011;12521;43.310;21.876;2022-09-09T04:28:05;11.0;;;9.0;;
22675;SDS011;12521;43.310;21.876;2022-09-09T04:32:42;12.0;;;9.0;;
22675;SDS011;12521;43.310;21.876;2022-09-09T04:37:18;12.0;;;9.0;;
22675;SDS011;12521;43.310;21.876;2022-09-09T04:41:56;11.0;;;9.0;;
22675;SDS011;12521;43.310;21.876;2022-09-09T04:46:33;11.0;;;9.0;;
22675;SDS011;12521;43.310;21.876;2022-09-09T04:51:13;10.0;;;9.0;;
22675;SDS011;12521;43.310;21.876;2022-09-09T04:56:01;10.0;;;9.0;;
22675;SDS011;12521;43.310;21.876;2022-09-09T05:00:48;10.0;;;9.0;;
22675;SDS011;12521;43.310;21.876;2022-09-09T05:05:25;10.0;;;9.0;;
22675;SDS011;12521;43.310;21.876;2022-09-09T05:10:02;10.0;;;9.0;;
22675;SDS011;12521;43.310;21.876;2022-09-09T05:14:42;10.0;;;9.0;;
22675;SDS011;12521;43.310;21.876;2022-09-09T05:19:20;10.0;;;9.0;;
22675;SDS011;12521;43.310;21.876;2022-09-09T05:23:57;10.0;;;9.0;;
22675;SDS011;12521;43.310;21.876;2022-09-09T05:28:35;10.0;;;9.0;;
22675;SDS011;12521;43.310;21.876;2022-09-09T05:33:12;10.0;;;9.0;;
22675;SDS011;12521;43.310;21.876;2022-09-09T05:37:48;10.0;;;9.0;;
22675;SDS011;12521;43.310;21.876;2022-09-09T05:42:30;11.0;;;10.0;;
22675;SDS011;12521;43.310;21.876;2022-09-09T05:47:07;11.0;;;10.0;;
22675;SDS011;12521;43.310;21.876;2022-09-09T05:51:44;12.0;;;10.0;;
22675;SDS011;12521;43.310;21.876;2022-09-09T05:56:23;12.0;;;10.0;;
22675;SDS011;12521;43.310;21.876;2022-09-09T06:01:08;12.0;;;10.0;;
22675;SDS011;12521;43.310;21.876;2022-09-09T06:05:58;12.0;;;10.0;;
22675;SDS011;12521;43.310;21.876;2022-09-09T06:10:40;12.0;;;10.0;;
22675;SDS011;12521;43.310;21.876;2022-09-09T06:15:17;12.0;;;10.0;;
22675;SDS011;12521;43.310;21.876;2022-09-09T06:19:53;13.0;;;10.0;;
22675;SDS011;12521;43.310;21.876;2022-09-09T06:24:30;13.0;;;10.0;;
22675;SDS011;12521;43.310;21.876;2022-09-09T06:29:08;14.0;;;11.0;;
22675;SDS011;12521;43.310;21.876;2022-09-09T06:33:48;14.0;;;11.0;;
22675;SDS011;12521;43.310;21.876;2022-09-09T06:38:30;14.0;;;11.0;;
22675;SDS011;12521;43.310;21.876;2022-09-09T06:43:06;14.0;;;11.0;;
22675;SDS011;12521;43.310;21.876;2022-09-09T06:47:43;14.0;;;11.0;;
22675;SDS011;12521;43.310;21.876;2022-09-09T06:52:20;15.0;;;11.0;;
22675;SDS011;12521;43.310;21.876;2022-09-09T06:56:56;15.0;;;11.0;;
22675;SDS011;12521;43.310;21.876;2022-09-09T07:01:36;16.0;;;12.0;;
22675;SDS011;12521;43.310;21.876;2022-09-09T07:06:21;16.0;;;12.0;;
22675;SDS011;12521;43.310;21.876;2022-09-09T07:11:08;16.0;;;12.0;;
22675;SDS011;12521;43.310;21.876;2022-09-09T07:15:46;16.0;;;12.0;;
22675;SDS011;12521;43.310;21.876;2022-09-09T07:20:23;19.0;;;12.0;;
22675;SDS011;12521;43.310;21.876;2022-09-09T07:25:01;19.0;;;12.0;;
22675;SDS011;12521;43.310;21.876;2022-09-09T07:29:41;22.0;;;13.0;;
22675;SDS011;12521;43.310;21.876;2022-09-09T07:34:18;22.0;;;13.0;;
22675;SDS011;12521;43.310;21.876;2022-09-09T07:39:00;22.0;;;13.0;;
22675;SDS011;12521;43.310;21.876;2022-09-09T07:43:51;20.0;;;12.0;;
22675;SDS011;12521;43.310;21.876;2022-09-09T07:48:30;20.0;;;12.0;;
22675;SDS011;12521;43.310;21.876;2022-09-09T07:53:09;17.0;;;12.0;;
22675;SDS011;12521;43.310;21.876;2022-09-09T07:57:46;17.0;;;12.0;;
22675;SDS011;12521;43.310;21.876;2022-09-09T08:02:24;18.0;;;12.0;;
22675;SDS011;12521;43.310;21.876;2022-09-09T08:07:02;18.0;;;12.0;;
22675;SDS011;12521;43.310;21.876;2022-09-09T08:11:42;18.0;;;13.0;;
22675;SDS011;12521;43.310;21.876;2022-09-09T08:16:25;18.0;;;13.0;;
22675;SDS011;12521;43.310;21.876;2022-09-09T08:21:14;16.0;;;12.0;;
22675;SDS011;12521;43.310;21.876;2022-09-09T08:26:05;16.0;;;12.0;;
22675;SDS011;12521;43.310;21.876;2022-09-09T08:30:45;15.0;;;12.0;;
22675;SDS011;12521;43.310;21.876;2022-09-09T08:35:22;15.0;;;12.0;;
22675;SDS011;12521;43.310;21.876;2022-09-09T08:39:58;16.0;;;12.0;;
22675;SDS011;12521;43.310;21.876;2022-09-09T08:44:58;16.0;;;12.0;;
22675;SDS011;12521;43.310;21.876;2022-09-09T08:50:19;16.0;;;13.0;;
22675;SDS011;12521;43.310;21.876;2022-09-09T08:55:25;16.0;;;13.0;;
22675;SDS011;12521;43.310;21.876;2022-09-09T09:00:21;18.0;;;14.0;;
22675;SDS011;12521;43.310;21.876;2022-09-09T09:05:28;18.0;;;14.0;;
22675;SDS011;12521;43.310;21.876;2022-09-09T09:10:46;19.0;;;15.0;;
22675;SDS011;12521;43.310;21.876;2022-09-09T09:15:38;19.0;;;15.0;;
22675;SDS011;12521;43.310;21.876;2022-09-09T09:20:45;246.0;;;220.0;;
22675;SDS011;12521;43.310;21.876;2022-09-09T09:25:44;246.0;;;220.0;;
22675;SDS011;12521;43.310;21.876;2022-09-09T09:30:26;473.0;;;424.0;;
22675;SDS011;12521;43.310;21.876;2022-09-09T09:35:18;473.0;;;424.0;;
22675;SDS011;12521;43.310;21.876;2022-09-09T09:39:56;339.0;;;307.0;;
22675;SDS011;12521;43.310;21.876;2022-09-09T09:44:45;339.0;;;307.0;;
22675;SDS011;12521;43.310;21.876;2022-09-09T09:49:22;205.0;;;190.0;;
22675;SDS011;12521;43.310;21.876;2022-09-09T09:54:27;205.0;;;190.0;;
22675;SDS011;12521;43.310;21.876;2022-09-09T09:59:32;118.0;;;109.0;;
22675;SDS011;12521;43.310;21.876;2022-09-09T10:04:19;118.0;;;109.0;;
22675;SDS011;12521;43.310;21.876;2022-09-09T10:09:04;118.0;;;109.0;;
22675;SDS011;12521;43.310;21.876;2022-09-09T10:14:20;30.0;;;28.0;;
22675;SDS011;12521;43.310;21.876;2022-09-09T10:20:18;124.0;;;118.0;;
22675;SDS011;12521;43.310;21.876;2022-09-09T10:26:17;124.0;;;118.0;;
22675;SDS011;12521;43.310;21.876;2022-09-09T10:31:59;218.0;;;208.0;;
22675;SDS011;12521;43.310;21.876;2022-09-09T10:37:57;218.0;;;208.0;;
22675;SDS011;12521;43.310;21.876;2022-09-09T10:43:16;142.0;;;135.0;;
22675;SDS011;12521;43.310;21.876;2022-09-09T10:49:21;142.0;;;135.0;;
22675;SDS011;12521;43.310;21.876;2022-09-09T10:55:14;65.0;;;62.0;;
22675;SDS011;12521;43.310;21.876;2022-09-09T11:00:16;65.0;;;62.0;;
22675;SDS011;12521;43.310;21.876;2022-09-09T11:05:15;65.0;;;62.0;;
22675;SDS011;12521;43.310;21.876;2022-09-09T11:10:22;65.0;;;62.0;;
22675;SDS011;12521;43.310;21.876;2022-09-09T11:15:28;65.0;;;62.0;;
22675;SDS011;12521;43.310;21.876;2022-09-09T11:20:22;38.0;;;35.0;;
22675;SDS011;12521;43.310;21.876;2022-09-09T11:25:14;38.0;;;35.0;;
22675;SDS011;12521;43.310;21.876;2022-09-09T11:30:19;12.0;;;8.0;;
22675;SDS011;12521;43.310;21.876;2022-09-09T11:35:31;12.0;;;8.0;;
22675;SDS011;12521;43.310;21.876;2022-09-09T11:40:41;138.0;;;130.0;;
22675;SDS011;12521;43.310;21.876;2022-09-09T11:45:25;138.0;;;130.0;;
22675;SDS011;12521;43.310;21.876;2022-09-09T11:50:22;265.0;;;252.0;;
22675;SDS011;12521;43.310;21.876;2022-09-09T11:55:27;265.0;;;252.0;;
22675;SDS011;12521;43.310;21.876;2022-09-09T12:00:35;264.0;;;252.0;;
22675;SDS011;12521;43.310;21.876;2022-09-09T12:05:18;264.0;;;252.0;;
22675;SDS011;12521;43.310;21.876;2022-09-09T12:10:05;264.0;;;252.0;;
22675;SDS011;12521;43.310;21.876;2022-09-09T12:15:27;264.0;;;252.0;;
22675;SDS011;12521;43.310;21.876;2022-09-09T12:20:15;173.0;;;164.0;;
22675;SDS011;12521;43.310;21.876;2022-09-09T12:25:18;173.0;;;164.0;;
22675;SDS011;12521;43.310;21.876;2022-09-09T12:30:35;82.0;;;77.0;;
22675;SDS011;12521;43.310;21.876;2022-09-09T12:35:51;82.0;;;77.0;;
22675;SDS011;12521;43.310;21.876;2022-09-09T12:40:35;65.0;;;62.0;;
22675;SDS011;12521;43.310;21.876;2022-09-09T12:45:20;65.0;;;62.0;;
22675;SDS011;12521;43.310;21.876;2022-09-09T12:50:18;48.0;;;46.0;;
22675;SDS011;12521;43.310;21.876;2022-09-09T12:55:20;48.0;;;46.0;;
22675;SDS011;12521;43.310;21.876;2022-09-09T13:00:19;40.0;;;38.0;;
22675;SDS011;12521;43.310;21.876;2022-09-09T13:05:17;40.0;;;38.0;;
22675;SDS011;12521;43.310;21.876;2022-09-09T13:10:13;32.0;;;29.0;;
22675;SDS011;12521;43.310;21.876;2022-09-09T13:15:28;32.0;;;29.0;;
22675;SDS011;12521;43.310;21.876;2022-09-09T13:20:18;22.0;;;20.0;;
22675;SDS011;12521;43.310;21.876;2022-09-09T13:25:06;22.0;;;20.0;;
22675;SDS011;12521;43.310;21.876;2022-09-09T13:30:24;12.0;;;10.0;;
22675;SDS011;12521;43.310;21.876;2022-09-09T13:35:24;12.0;;;10.0;;
22675;SDS011;12521;43.310;21.876;2022-09-09T13:40:05;12.0;;;9.0;;
22675;SDS011;12521;43.310;21.876;2022-09-09T13:44:59;12.0;;;9.0;;
22675;SDS011;12521;43.310;21.876;2022-09-09T13:49:38;13.0;;;8.0;;
22675;SDS011;12521;43.310;21.876;2022-09-09T13:54:18;13.0;;;8.0;;
22675;SDS011;12521;43.310;21.876;2022-09-09T13:58:57;13.0;;;8.0;;
22675;SDS011;12521;43.310;21.876;2022-09-09T14:03:33;11.0;;;7.0;;
22675;SDS011;12521;43.310;21.876;2022-09-09T14:08:23;11.0;;;7.0;;
22675;SDS011;12521;43.310;21.876;2022-09-09T14:13:03;9.0;;;6.0;;
22675;SDS011;12521;43.310;21.876;2022-09-09T14:17:40;9.0;;;6.0;;
22675;SDS011;12521;43.310;21.876;2022-09-09T14:22:17;8.0;;;6.0;;
22675;SDS011;12521;43.310;21.876;2022-09-09T14:26:55;8.0;;;6.0;;
22675;SDS011;12521;43.310;21.876;2022-09-09T14:31:32;7.0;;;6.0;;
22675;SDS011;12521;43.310;21.876;2022-09-09T14:36:10;7.0;;;6.0;;
22675;SDS011;12521;43.310;21.876;2022-09-09T14:40:48;8.0;;;6.0;;
22675;SDS011;12521;43.310;21.876;2022-09-09T14:45:25;8.0;;;6.0;;
22675;SDS011;12521;43.310;21.876;2022-09-09T14:50:03;8.0;;;6.0;;
22675;SDS011;12521;43.310;21.876;2022-09-09T14:54:42;8.0;;;6.0;;
22675;SDS011;12521;43.310;21.876;2022-09-09T14:59:18;8.0;;;6.0;;
22675;SDS011;12521;43.310;21.876;2022-09-09T15:03:58;8.0;;;6.0;;
22675;SDS011;12521;43.310;21.876;2022-09-09T15:08:44;8.0;;;6.0;;
22675;SDS011;12521;43.310;21.876;2022-09-09T15:13:28;9.0;;;6.0;;
22675;SDS011;12521;43.310;21.876;2022-09-09T15:18:05;9.0;;;6.0;;
22675;SDS011;12521;43.310;21.876;2022-09-09T15:22:42;9.0;;;6.0;;
22675;SDS011;12521;43.310;21.876;2022-09-09T15:27:20;9.0;;;6.0;;
22675;SDS011;12521;43.310;21.876;2022-09-09T15:31:57;9.0;;;7.0;;
22675;SDS011;12521;43.310;21.876;2022-09-09T15:36:37;9.0;;;7.0;;
22675;SDS011;12521;43.310;21.876;2022-09-09T15:41:22;8.0;;;6.0;;
22675;SDS011;12521;43.310;21.876;2022-09-09T15:46:26;8.0;;;6.0;;
22675;SDS011;12521;43.310;21.876;2022-09-09T15:51:12;7.0;;;6.0;;
22675;SDS011;12521;43.310;21.876;2022-09-09T15:55:55;7.0;;;6.0;;
22675;SDS011;12521;43.310;21.876;2022-09-09T16:00:31;8.0;;;6.0;;
22675;SDS011;12521;43.310;21.876;2022-09-09T16:05:09;8.0;;;6.0;;
22675;SDS011;12521;43.310;21.876;2022-09-09T16:09:45;8.0;;;6.0;;
22675;SDS011;12521;43.310;21.876;2022-09-09T16:14:22;8.0;;;6.0;;
22675;SDS011;12521;43.310;21.876;2022-09-09T16:19:05;8.0;;;6.0;;
22675;SDS011;12521;43.310;21.876;2022-09-09T16:23:50;8.0;;;6.0;;
22675;SDS011;12521;43.310;21.876;2022-09-09T16:28:29;8.0;;;6.0;;
22675;SDS011;12521;43.310;21.876;2022-09-09T16:33:05;7.0;;;6.0;;
22675;SDS011;12521;43.310;21.876;2022-09-09T16:37:41;7.0;;;6.0;;
22675;SDS011;12521;43.310;21.876;2022-09-09T16:42:18;8.0;;;6.0;;
22675;SDS011;12521;43.310;21.876;2022-09-09T16:46:54;8.0;;;6.0;;
22675;SDS011;12521;43.310;21.876;2022-09-09T16:51:35;10.0;;;7.0;;
22675;SDS011;12521;43.310;21.876;2022-09-09T16:56:21;10.0;;;7.0;;
22675;SDS011;12521;43.310;21.876;2022-09-09T17:01:05;14.0;;;10.0;;
22675;SDS011;12521;43.310;21.876;2022-09-09T17:05:42;14.0;;;10.0;;
22675;SDS011;12521;43.310;21.876;2022-09-09T17:10:18;19.0;;;12.0;;
22675;SDS011;12521;43.310;21.876;2022-09-09T17:14:55;19.0;;;12.0;;
22675;SDS011;12521;43.310;21.876;2022-09-09T17:19:32;19.0;;;12.0;;
22675;SDS011;12521;43.310;21.876;2022-09-09T17:24:10;16.0;;;11.0;;
22675;SDS011;12521;43.310;21.876;2022-09-09T17:28:48;16.0;;;11.0;;
22675;SDS011;12521;43.310;21.876;2022-09-09T17:33:25;14.0;;;10.0;;
22675;SDS011;12521;43.310;21.876;2022-09-09T17:38:01;14.0;;;10.0;;
22675;SDS011;12521;43.310;21.876;2022-09-09T17:42:38;14.0;;;10.0;;
22675;SDS011;12521;43.310;21.876;2022-09-09T17:47:14;14.0;;;10.0;;
22675;SDS011;12521;43.310;21.876;2022-09-09T17:51:51;14.0;;;10.0;;
22675;SDS011;12521;43.310;21.876;2022-09-09T17:56:32;14.0;;;10.0;;
22675;SDS011;12521;43.310;21.876;2022-09-09T18:01:18;12.0;;;10.0;;
22675;SDS011;12521;43.310;21.876;2022-09-09T18:06:10;12.0;;;10.0;;
22675;SDS011;12521;43.310;21.876;2022-09-09T18:11:03;10.0;;;9.0;;
22675;SDS011;12521;43.310;21.876;2022-09-09T18:15:44;10.0;;;9.0;;
22675;SDS011;12521;43.310;21.876;2022-09-09T18:20:21;11.0;;;8.0;;
22675;SDS011;12521;43.310;21.876;2022-09-09T18:24:58;11.0;;;8.0;;
22675;SDS011;12521;43.310;21.876;2022-09-09T18:29:35;11.0;;;8.0;;
22675;SDS011;12521;43.310;21.876;2022-09-09T18:34:16;12.0;;;8.0;;
22675;SDS011;12521;43.310;21.876;2022-09-09T18:39:01;12.0;;;8.0;;
22675;SDS011;12521;43.310;21.876;2022-09-09T18:43:44;12.0;;;9.0;;
22675;SDS011;12521;43.310;21.876;2022-09-09T18:48:21;12.0;;;9.0;;
22675;SDS011;12521;43.310;21.876;2022-09-09T18:52:57;12.0;;;10.0;;
22675;SDS011;12521;43.310;21.876;2022-09-09T18:57:35;12.0;;;10.0;;
22675;SDS011;12521;43.310;21.876;2022-09-09T19:02:12;14.0;;;10.0;;
22675;SDS011;12521;43.310;21.876;2022-09-09T19:06:50;14.0;;;10.0;;
22675;SDS011;12521;43.310;21.876;2022-09-09T19:11:27;15.0;;;10.0;;
22675;SDS011;12521;43.310;21.876;2022-09-09T19:16:06;15.0;;;10.0;;
22675;SDS011;12521;43.310;21.876;2022-09-09T19:20:49;14.0;;;10.0;;
22675;SDS011;12521;43.310;21.876;2022-09-09T19:25:25;14.0;;;10.0;;
22675;SDS011;12521;43.310;21.876;2022-09-09T19:30:04;12.0;;;11.0;;
22675;SDS011;12521;43.310;21.876;2022-09-09T19:34:44;12.0;;;11.0;;
22675;SDS011;12521;43.310;21.876;2022-09-09T19:39:21;12.0;;;11.0;;
22675;SDS011;12521;43.310;21.876;2022-09-09T19:44:01;12.0;;;10.0;;
22675;SDS011;12521;43.310;21.876;2022-09-09T19:48:48;12.0;;;10.0;;
22675;SDS011;12521;43.310;21.876;2022-09-09T19:53:25;13.0;;;10.0;;
22675;SDS011;12521;43.310;21.876;2022-09-09T19:58:02;13.0;;;10.0;;
22675;SDS011;12521;43.310;21.876;2022-09-09T20:02:38;15.0;;;10.0;;
22675;SDS011;12521;43.310;21.876;2022-09-09T20:07:15;15.0;;;10.0;;
22675;SDS011;12521;43.310;21.876;2022-09-09T20:11:51;17.0;;;11.0;;
22675;SDS011;12521;43.310;21.876;2022-09-09T20:16:30;17.0;;;11.0;;
22675;SDS011;12521;43.310;21.876;2022-09-09T20:21:13;15.0;;;12.0;;
22675;SDS011;12521;43.310;21.876;2022-09-09T20:26:02;15.0;;;12.0;;
22675;SDS011;12521;43.310;21.876;2022-09-09T20:30:46;13.0;;;12.0;;
22675;SDS011;12521;43.310;21.876;2022-09-09T20:35:27;13.0;;;12.0;;
22675;SDS011;12521;43.310;21.876;2022-09-09T20:40:05;16.0;;;12.0;;
22675;SDS011;12521;43.310;21.876;2022-09-09T20:44:45;16.0;;;12.0;;
22675;SDS011;12521;43.310;21.876;2022-09-09T20:49:23;16.0;;;12.0;;
22675;SDS011;12521;43.310;21.876;2022-09-09T20:54:05;18.0;;;12.0;;
22675;SDS011;12521;43.310;21.876;2022-09-09T20:58:54;18.0;;;12.0;;
22675;SDS011;12521;43.310;21.876;2022-09-09T21:03:35;16.0;;;12.0;;
22675;SDS011;12521;43.310;21.876;2022-09-09T21:08:12;16.0;;;12.0;;
22675;SDS011;12521;43.310;21.876;2022-09-09T21:12:49;14.0;;;11.0;;
22675;SDS011;12521;43.310;21.876;2022-09-09T21:17:26;14.0;;;11.0;;
22675;SDS011;12521;43.310;21.876;2022-09-09T21:22:03;14.0;;;11.0;;
22675;SDS011;12521;43.310;21.876;2022-09-09T21:26:40;14.0;;;11.0;;
22675;SDS011;12521;43.310;21.876;2022-09-09T21:40:48;16.0;;;13.0;;
22675;SDS011;12521;43.310;21.876;2022-09-09T21:45:25;16.0;;;13.0;;
22675;SDS011;12521;43.310;21.876;2022-09-09T21:50:02;16.0;;;13.0;;
22675;SDS011;12521;43.310;21.876;2022-09-09T21:54:39;16.0;;;13.0;;
22675;SDS011;12521;43.310;21.876;2022-09-09T21:59:16;16.0;;;13.0;;
22675;SDS011;12521;43.310;21.876;2022-09-09T22:03:53;14.0;;;12.0;;
22675;SDS011;12521;43.310;21.876;2022-09-09T22:08:30;14.0;;;12.0;;
22675;SDS011;12521;43.310;21.876;2022-09-09T22:13:07;13.0;;;11.0;;
22675;SDS011;12521;43.310;21.876;2022-09-09T22:17:44;13.0;;;11.0;;
22675;SDS011;12521;43.310;21.876;2022-09-09T22:22:21;14.0;;;12.0;;
22675;SDS011;12521;43.310;21.876;2022-09-09T22:26:57;14.0;;;12.0;;
22675;SDS011;12521;43.310;21.876;2022-09-09T22:31:35;15.0;;;14.0;;
22675;SDS011;12521;43.310;21.876;2022-09-09T22:36:12;15.0;;;14.0;;
22675;SDS011;12521;43.310;21.876;2022-09-09T22:40:49;16.0;;;14.0;;
22675;SDS011;12521;43.310;21.876;2022-09-09T22:45:25;16.0;;;14.0;;
22675;SDS011;12521;43.310;21.876;2022-09-09T22:50:04;18.0;;;14.0;;
22675;SDS011;12521;43.310;21.876;2022-09-09T22:54:42;18.0;;;14.0;;
22675;SDS011;12521;43.310;21.876;2022-09-09T22:59:19;18.0;;;14.0;;
22675;SDS011;12521;43.310;21.876;2022-09-09T23:03:58;20.0;;;15.0;;
22675;SDS011;12521;43.310;21.876;2022-09-09T23:08:37;20.0;;;15.0;;
22675;SDS011;12521;43.310;21.876;2022-09-09T23:13:13;22.0;;;16.0;;
22675;SDS011;12521;43.310;21.876;2022-09-09T23:17:51;22.0;;;16.0;;
22675;SDS011;12521;43.310;21.876;2022-09-09T23:22:28;20.0;;;16.0;;
22675;SDS011;12521;43.310;21.876;2022-09-09T23:27:06;20.0;;;16.0;;
22675;SDS011;12521;43.310;21.876;2022-09-09T23:31:45;17.0;;;15.0;;
22675;SDS011;12521;43.310;21.876;2022-09-09T23:36:26;17.0;;;15.0;;
22675;SDS011;12521;43.310;21.876;2022-09-09T23:41:12;16.0;;;14.0;;
22675;SDS011;12521;43.310;21.876;2022-09-09T23:45:56;16.0;;;14.0;;
22675;SDS011;12521;43.310;21.876;2022-09-09T23:50:33;16.0;;;13.0;;
22675;SDS011;12521;43.310;21.876;2022-09-09T23:55:10;16.0;;;13.0;;
22675;SDS011;12521;43.310;21.876;2022-09-09T23:59:47;16.0;;;13.0;;
